createdAt,value
2018-09-04T00:01:07.199Z,16.60
2018-09-04T00:03:36.342Z,16.60
2018-09-04T00:06:05.702Z,16.60
2018-09-04T00:08:35.150Z,16.60
2018-09-04T00:11:04.658Z,16.60
2018-09-04T00:13:34.137Z,16.60
2018-09-04T00:16:07.450Z,16.60
2018-09-04T00:18:36.654Z,16.60
2018-09-04T00:21:07.163Z,16.60
2018-09-04T00:23:36.610Z,16.60
2018-09-04T00:26:06.185Z,16.60
2018-09-04T00:28:35.286Z,16.70
2018-09-04T00:31:04.702Z,16.70
2018-09-04T00:33:34.055Z,16.60
2018-09-04T00:36:03.512Z,16.70
2018-09-04T00:38:33.048Z,16.60
2018-09-04T00:41:02.267Z,16.60
2018-09-04T00:43:31.702Z,16.70
2018-09-04T00:46:01.054Z,16.70
2018-09-04T00:48:30.326Z,16.70
2018-09-04T00:50:59.766Z,16.70
2018-09-04T00:53:29.150Z,16.70
2018-09-04T00:55:58.403Z,16.70
2018-09-04T00:58:27.645Z,16.70
2018-09-04T01:00:56.918Z,16.70
2018-09-04T01:03:26.158Z,16.70
2018-09-04T01:05:55.534Z,16.70
2018-09-04T01:08:24.913Z,16.70
2018-09-04T01:10:54.182Z,16.70
2018-09-04T01:13:23.543Z,16.80
2018-09-04T01:15:52.950Z,16.80
2018-09-04T01:18:22.334Z,16.80
2018-09-04T01:20:51.708Z,16.80
2018-09-04T01:23:21.117Z,16.70
2018-09-04T01:25:50.350Z,16.80
2018-09-04T01:28:19.745Z,16.80
2018-09-04T01:30:49.004Z,16.80
2018-09-04T01:33:18.861Z,16.70
2018-09-04T01:35:48.161Z,16.70
2018-09-04T01:38:17.367Z,16.70
2018-09-04T01:40:46.694Z,16.70
2018-09-04T01:43:16.233Z,16.70
2018-09-04T01:45:45.498Z,16.60
2018-09-04T01:48:15.370Z,16.60
2018-09-04T01:50:45.185Z,16.60
2018-09-04T01:53:14.394Z,16.60
2018-09-04T01:55:43.610Z,16.60
2018-09-04T01:58:12.964Z,16.60
2018-09-04T02:00:42.326Z,16.60
2018-09-04T02:03:11.703Z,16.60
2018-09-04T02:05:41.198Z,16.60
2018-09-04T02:08:10.499Z,16.60
2018-09-04T02:10:39.844Z,16.60
2018-09-04T02:13:09.206Z,16.60
2018-09-04T02:15:38.582Z,16.60
2018-09-04T02:18:07.906Z,16.60
2018-09-04T02:20:37.264Z,16.60
2018-09-04T02:23:06.654Z,16.60
2018-09-04T02:25:36.027Z,16.60
2018-09-04T02:28:05.797Z,16.60
2018-09-04T02:30:35.003Z,16.60
2018-09-04T02:33:04.349Z,16.60
2018-09-04T02:35:33.756Z,16.60
2018-09-04T02:38:03.056Z,16.60
2018-09-04T02:40:32.394Z,16.60
2018-09-04T02:43:01.798Z,16.70
2018-09-04T02:45:32.452Z,16.70
2018-09-04T02:48:01.738Z,16.70
2018-09-04T02:50:31.170Z,16.80
2018-09-04T02:53:00.448Z,16.70
2018-09-04T02:55:29.695Z,16.80
2018-09-04T02:57:58.957Z,16.80
2018-09-04T03:00:28.454Z,16.80
2018-09-04T03:02:57.723Z,16.80
2018-09-04T03:05:27.192Z,16.70
2018-09-04T03:07:56.466Z,16.70
2018-09-04T03:10:25.852Z,16.70
2018-09-04T03:12:55.465Z,16.70
2018-09-04T03:15:24.827Z,16.70
2018-09-04T03:17:54.205Z,16.70
2018-09-04T03:20:23.461Z,16.70
2018-09-04T03:22:52.786Z,16.70
2018-09-04T03:25:22.146Z,16.70
2018-09-04T03:27:51.473Z,16.70
2018-09-04T03:30:20.748Z,16.70
2018-09-04T03:32:50.071Z,16.70
2018-09-04T03:35:19.467Z,16.70
2018-09-04T03:37:48.894Z,16.70
2018-09-04T03:40:19.011Z,16.80
2018-09-04T03:42:48.325Z,16.80
2018-09-04T03:45:17.630Z,16.80
2018-09-04T03:47:46.883Z,16.90
2018-09-04T03:50:16.241Z,16.80
2018-09-04T03:52:45.465Z,16.80
2018-09-04T03:55:14.794Z,16.90
2018-09-04T03:57:44.103Z,16.80
2018-09-04T04:00:13.746Z,16.80
2018-09-04T04:02:42.966Z,16.80
2018-09-04T04:05:11.952Z,16.80
2018-09-04T04:07:41.189Z,16.90
2018-09-04T04:10:10.271Z,16.90
2018-09-04T04:12:39.935Z,16.80
2018-09-04T04:15:09.062Z,16.80
2018-09-04T04:17:38.380Z,16.80
2018-09-04T04:20:07.745Z,16.80
2018-09-04T04:22:36.965Z,16.80
2018-09-04T04:25:06.485Z,16.80
2018-09-04T04:27:35.873Z,16.80
2018-09-04T04:30:05.366Z,16.80
2018-09-04T04:32:34.621Z,16.90
2018-09-04T04:35:04.091Z,16.90
2018-09-04T04:37:33.385Z,16.80
2018-09-04T04:40:02.739Z,16.80
2018-09-04T04:42:32.043Z,16.90
2018-09-04T04:45:01.122Z,16.80
2018-09-04T04:47:35.418Z,16.90
2018-09-04T04:50:04.856Z,16.90
2018-09-04T04:52:34.078Z,16.90
2018-09-04T04:55:03.332Z,16.90
2018-09-04T04:57:32.659Z,16.90
2018-09-04T05:00:01.863Z,16.90
2018-09-04T05:02:31.020Z,17.00
2018-09-04T05:05:00.115Z,17.00
2018-09-04T05:07:29.472Z,17.00
2018-09-04T05:09:58.751Z,17.00
2018-09-04T05:12:27.989Z,17.00
2018-09-04T05:14:57.065Z,17.00
2018-09-04T05:17:26.334Z,17.10
2018-09-04T05:19:55.696Z,17.10
2018-09-04T05:22:24.994Z,17.10
2018-09-04T05:24:54.275Z,17.10
2018-09-04T05:27:23.519Z,17.10
2018-09-04T05:29:53.605Z,17.20
2018-09-04T05:32:27.742Z,17.20
2018-09-04T05:34:56.895Z,17.20
2018-09-04T05:37:26.127Z,17.20
2018-09-04T05:39:55.493Z,17.10
2018-09-04T05:42:29.785Z,17.10
2018-09-04T05:44:58.833Z,17.20
2018-09-04T05:47:32.520Z,17.20
2018-09-04T05:50:02.629Z,17.20
2018-09-04T05:52:31.778Z,17.20
2018-09-04T05:55:01.100Z,17.20
2018-09-04T05:57:30.453Z,17.30
2018-09-04T05:59:59.779Z,17.40
2018-09-04T06:02:30.714Z,17.50
2018-09-04T06:05:00.400Z,17.60
2018-09-04T06:07:29.571Z,17.70
2018-09-04T06:09:58.822Z,17.70
2018-09-04T06:12:28.062Z,17.80
2018-09-04T06:14:57.326Z,17.90
2018-09-04T06:17:26.458Z,17.90
2018-09-04T06:19:55.756Z,18.00
2018-09-04T06:22:25.015Z,17.90
2018-09-04T06:24:54.322Z,18.00
2018-09-04T06:27:23.587Z,17.90
2018-09-04T06:29:53.160Z,17.80
2018-09-04T06:32:22.517Z,17.80
2018-09-04T06:34:51.797Z,17.80
2018-09-04T06:37:21.100Z,17.80
2018-09-04T06:39:50.290Z,17.80
2018-09-04T06:42:19.619Z,17.80
2018-09-04T06:44:49.491Z,17.90
2018-09-04T06:47:18.823Z,17.90
2018-09-04T06:49:48.166Z,18.00
2018-09-04T06:52:17.410Z,18.00
2018-09-04T06:54:46.696Z,18.10
2018-09-04T06:57:15.886Z,18.10
2018-09-04T06:59:45.146Z,18.10
2018-09-04T07:02:14.350Z,18.20
2018-09-04T07:04:43.486Z,18.20
2018-09-04T07:07:12.754Z,18.30
2018-09-04T07:09:42.030Z,18.50
2018-09-04T07:12:11.252Z,18.60
2018-09-04T07:14:40.493Z,18.70
2018-09-04T07:17:09.813Z,18.80
2018-09-04T07:19:38.978Z,19.00
2018-09-04T07:22:08.206Z,19.10
2018-09-04T07:24:37.551Z,19.20
2018-09-04T07:27:07.087Z,19.30
2018-09-04T07:29:36.356Z,19.40
2018-09-04T07:32:05.644Z,19.50
2018-09-04T07:34:34.899Z,19.50
2018-09-04T07:37:04.099Z,19.50
2018-09-04T07:39:33.424Z,19.50
2018-09-04T07:42:02.799Z,19.60
2018-09-04T07:44:31.838Z,19.60
2018-09-04T07:47:01.593Z,19.60
2018-09-04T07:49:30.744Z,19.50
2018-09-04T07:52:00.050Z,19.40
2018-09-04T07:54:29.430Z,19.40
2018-09-04T07:56:58.925Z,19.40
2018-09-04T07:59:28.189Z,19.40
2018-09-04T08:01:57.498Z,19.50
2018-09-04T08:04:26.765Z,19.60
2018-09-04T08:06:56.026Z,19.90
2018-09-04T08:09:25.301Z,20.20
2018-09-04T08:11:54.654Z,20.30
2018-09-04T08:14:23.860Z,20.40
2018-09-04T08:16:52.973Z,20.60
2018-09-04T08:19:22.246Z,20.70
2018-09-04T08:21:51.439Z,20.90
2018-09-04T08:24:20.686Z,21.10
2018-09-04T08:26:49.946Z,21.20
2018-09-04T08:29:19.138Z,21.10
2018-09-04T08:31:48.361Z,21.20
2018-09-04T08:34:17.817Z,21.30
2018-09-04T08:36:46.967Z,21.40
2018-09-04T08:39:16.169Z,21.40
2018-09-04T08:41:45.462Z,21.40
2018-09-04T08:44:14.639Z,21.40
2018-09-04T08:46:43.807Z,21.50
2018-09-04T08:49:13.430Z,21.60
2018-09-04T08:51:42.634Z,21.70
2018-09-04T08:54:11.996Z,21.80
2018-09-04T08:56:41.113Z,21.80
2018-09-04T08:59:10.412Z,21.70
2018-09-04T09:01:39.685Z,21.60
2018-09-04T09:04:08.806Z,21.50
2018-09-04T09:06:37.926Z,21.40
2018-09-04T09:09:09.224Z,21.20
2018-09-04T09:11:38.464Z,21.10
2018-09-04T09:14:07.654Z,21.00
2018-09-04T09:16:37.155Z,21.10
2018-09-04T09:19:06.625Z,21.00
2018-09-04T09:21:35.744Z,21.00
2018-09-04T09:24:04.921Z,21.00
2018-09-04T09:26:33.995Z,21.00
2018-09-04T09:29:03.582Z,21.00
2018-09-04T09:31:32.930Z,21.10
2018-09-04T09:34:02.540Z,21.20
2018-09-04T09:36:31.736Z,21.40
2018-09-04T09:39:00.893Z,21.80
2018-09-04T09:41:30.178Z,22.20
2018-09-04T09:43:59.422Z,22.40
2018-09-04T09:46:28.746Z,22.50
2018-09-04T09:48:57.943Z,22.50
2018-09-04T09:51:27.236Z,22.60
2018-09-04T09:53:56.550Z,22.50
2018-09-04T09:56:25.897Z,22.40
2018-09-04T09:58:55.193Z,22.30
2018-09-04T10:01:29.634Z,22.10
2018-09-04T10:04:02.256Z,22.00
2018-09-04T10:06:31.493Z,21.80
2018-09-04T10:09:00.826Z,21.70
2018-09-04T10:11:30.284Z,21.60
2018-09-04T10:13:59.499Z,21.70
2018-09-04T10:16:28.809Z,21.70
2018-09-04T10:18:58.110Z,21.70
2018-09-04T10:21:27.314Z,21.70
2018-09-04T10:23:56.450Z,21.60
2018-09-04T10:26:25.867Z,21.70
2018-09-04T10:28:55.254Z,21.70
2018-09-04T10:31:24.625Z,21.80
2018-09-04T10:33:53.819Z,21.70
2018-09-04T10:36:23.112Z,21.70
2018-09-04T10:38:56.353Z,21.80
2018-09-04T10:41:25.657Z,21.80
2018-09-04T10:43:54.978Z,21.90
2018-09-04T10:46:24.210Z,22.00
2018-09-04T10:48:53.414Z,22.10
2018-09-04T10:51:22.724Z,22.10
2018-09-04T10:53:51.909Z,22.10
2018-09-04T10:56:21.127Z,22.20
2018-09-04T10:58:50.320Z,22.30
2018-09-04T11:01:19.386Z,22.40
2018-09-04T11:03:48.546Z,22.60
2018-09-04T11:06:17.859Z,22.70
2018-09-04T11:08:47.124Z,22.80
2018-09-04T11:11:16.350Z,23.00
2018-09-04T11:13:45.672Z,23.00
2018-09-04T11:16:14.994Z,23.00
2018-09-04T11:18:44.284Z,22.80
2018-09-04T11:21:13.531Z,22.70
2018-09-04T11:23:42.920Z,22.60
2018-09-04T11:26:12.134Z,22.50
2018-09-04T11:28:44.954Z,22.40
2018-09-04T11:31:14.132Z,22.30
2018-09-04T11:33:43.479Z,22.30
2018-09-04T11:36:12.539Z,22.20
2018-09-04T11:38:41.741Z,22.20
2018-09-04T11:41:10.857Z,22.10
2018-09-04T11:43:40.150Z,21.90
2018-09-04T11:46:09.394Z,21.80
2018-09-04T11:48:39.038Z,21.80
2018-09-04T11:51:10.523Z,21.90
2018-09-04T11:53:39.867Z,21.80
2018-09-04T11:56:09.031Z,21.90
2018-09-04T11:58:38.196Z,22.00
2018-09-04T12:01:12.577Z,22.00
2018-09-04T12:03:41.938Z,22.10
2018-09-04T12:06:11.170Z,22.20
2018-09-04T12:08:40.340Z,22.40
2018-09-04T12:11:09.431Z,22.50
2018-09-04T12:13:38.462Z,22.60
2018-09-04T12:16:07.718Z,23.00
2018-09-04T12:18:36.942Z,23.50
2018-09-04T12:21:11.305Z,23.70
2018-09-04T12:23:40.870Z,23.80
2018-09-04T12:26:11.405Z,23.90
2018-09-04T12:28:40.617Z,23.80
2018-09-04T12:31:10.415Z,23.50
2018-09-04T12:33:39.656Z,23.50
2018-09-04T12:36:09.007Z,23.40
2018-09-04T12:38:40.027Z,23.50
2018-09-04T12:41:14.375Z,23.70
2018-09-04T12:43:43.696Z,23.80
2018-09-04T12:46:12.854Z,24.00
2018-09-04T12:48:47.286Z,24.00
2018-09-04T12:51:16.500Z,24.00
2018-09-04T12:53:45.801Z,24.00
2018-09-04T12:56:15.085Z,24.00
2018-09-04T12:58:44.213Z,23.80
2018-09-04T13:01:13.384Z,23.70
2018-09-04T13:03:42.582Z,23.60
2018-09-04T13:06:11.881Z,23.70
2018-09-04T13:08:41.296Z,23.90
2018-09-04T13:11:10.492Z,24.00
2018-09-04T13:13:39.714Z,24.10
2018-09-04T13:16:09.020Z,24.30
2018-09-04T13:18:38.173Z,24.30
2018-09-04T13:21:07.366Z,24.20
2018-09-04T13:23:36.567Z,24.20
2018-09-04T13:26:06.805Z,24.30
2018-09-04T13:28:36.197Z,24.30
2018-09-04T13:31:05.457Z,24.40
2018-09-04T13:33:34.711Z,24.30
2018-09-04T13:36:03.861Z,24.30
2018-09-04T13:38:33.034Z,24.30
2018-09-04T13:41:07.124Z,24.40
2018-09-04T13:43:37.339Z,24.50
2018-09-04T13:46:06.950Z,24.50
2018-09-04T13:48:36.442Z,24.30
2018-09-04T13:51:05.710Z,24.20
2018-09-04T13:53:35.085Z,24.00
2018-09-04T13:56:04.138Z,23.80
2018-09-04T13:58:33.399Z,23.60
2018-09-04T14:01:02.687Z,23.40
2018-09-04T14:03:31.825Z,23.00
2018-09-04T14:06:01.040Z,22.80
2018-09-04T14:08:30.248Z,22.50
2018-09-04T14:10:59.397Z,22.30
2018-09-04T14:13:28.634Z,22.20
2018-09-04T14:15:59.626Z,22.10
2018-09-04T14:18:28.877Z,22.00
2018-09-04T14:20:58.261Z,22.00
2018-09-04T14:23:27.483Z,21.90
2018-09-04T14:25:56.755Z,21.80
2018-09-04T14:29:06.273Z,21.70
2018-09-04T14:30:55.295Z,21.60
2018-09-04T14:33:25.002Z,21.50
2018-09-04T14:35:54.377Z,21.40
2018-09-04T14:38:24.265Z,21.40
2018-09-04T14:40:53.393Z,21.30
2018-09-04T14:43:22.657Z,21.30
2018-09-04T14:45:51.775Z,21.20
2018-09-04T14:48:21.094Z,21.20
2018-09-04T14:50:50.343Z,21.20
2018-09-04T14:53:19.772Z,21.30
2018-09-04T14:55:49.089Z,21.30
2018-09-04T14:58:18.430Z,21.30
2018-09-04T15:00:47.817Z,21.30
2018-09-04T15:03:17.094Z,21.30
2018-09-04T15:05:46.389Z,21.30
2018-09-04T15:08:15.737Z,21.30
2018-09-04T15:10:44.949Z,21.30
2018-09-04T15:13:14.276Z,21.30
2018-09-04T15:15:44.581Z,21.30
2018-09-04T15:18:13.823Z,21.40
2018-09-04T15:20:43.009Z,21.40
2018-09-04T15:23:12.351Z,21.40
2018-09-04T15:25:41.519Z,21.40
2018-09-04T15:28:10.654Z,21.50
2018-09-04T15:30:39.975Z,21.40
2018-09-04T15:33:09.210Z,21.40
2018-09-04T15:35:38.429Z,21.40
2018-09-04T15:38:07.745Z,21.40
2018-09-04T15:40:37.053Z,21.40
2018-09-04T15:43:06.206Z,21.50
2018-09-04T15:45:35.481Z,21.60
2018-09-04T15:48:04.698Z,21.60
2018-09-04T15:50:34.069Z,21.70
2018-09-04T15:53:03.227Z,21.70
2018-09-04T15:55:32.590Z,21.70
2018-09-04T15:58:01.910Z,21.60
2018-09-04T16:00:31.105Z,21.60
2018-09-04T16:03:00.504Z,21.50
2018-09-04T16:05:29.832Z,21.50
2018-09-04T16:07:59.090Z,21.40
2018-09-04T16:10:28.415Z,21.30
2018-09-04T16:12:57.674Z,21.20
2018-09-04T16:15:26.861Z,21.10
2018-09-04T16:17:56.212Z,21.00
2018-09-04T16:20:25.438Z,20.90
2018-09-04T16:22:54.718Z,20.80
2018-09-04T16:25:23.900Z,20.70
2018-09-04T16:27:53.198Z,20.70
2018-09-04T16:30:22.427Z,20.60
2018-09-04T16:32:51.609Z,20.60
2018-09-04T16:35:20.881Z,20.60
2018-09-04T16:37:50.179Z,20.50
2018-09-04T16:40:19.430Z,20.50
2018-09-04T16:42:48.618Z,20.50
2018-09-04T16:45:17.934Z,20.40
2018-09-04T16:47:47.235Z,20.40
2018-09-04T16:50:16.492Z,20.40
2018-09-04T16:52:45.738Z,20.40
2018-09-04T16:55:15.069Z,20.30
2018-09-04T16:57:44.353Z,20.30
2018-09-04T17:00:13.438Z,20.20
2018-09-04T17:02:42.686Z,20.10
2018-09-04T17:05:12.753Z,20.10
2018-09-04T17:07:41.993Z,20.00
2018-09-04T17:10:11.162Z,20.10
2018-09-04T17:12:40.414Z,20.00
2018-09-04T17:15:09.651Z,20.00
2018-09-04T17:17:38.969Z,19.90
2018-09-04T17:20:08.320Z,19.90
2018-09-04T17:22:37.430Z,19.80
2018-09-04T17:25:06.706Z,19.80
2018-09-04T17:27:35.978Z,19.70
2018-09-04T17:30:05.347Z,19.60
2018-09-04T17:32:34.630Z,19.60
2018-09-04T17:35:03.863Z,19.50
2018-09-04T17:37:32.983Z,19.40
2018-09-04T17:40:02.279Z,19.40
2018-09-04T17:42:31.711Z,19.40
2018-09-04T17:45:00.967Z,19.30
2018-09-04T17:47:30.254Z,19.30
2018-09-04T17:49:59.610Z,19.30
2018-09-04T17:52:28.783Z,19.30
2018-09-04T17:54:57.977Z,19.20
2018-09-04T17:57:27.311Z,19.20
2018-09-04T17:59:56.461Z,19.20
2018-09-04T18:02:25.527Z,19.20
2018-09-04T18:04:54.818Z,19.20
2018-09-04T18:07:23.993Z,19.20
2018-09-04T18:09:53.342Z,19.10
2018-09-04T18:12:22.582Z,19.10
2018-09-04T18:14:51.936Z,19.10
2018-09-04T18:17:21.314Z,19.10
2018-09-04T18:19:50.655Z,19.20
2018-09-04T18:22:19.912Z,19.10
2018-09-04T18:24:49.169Z,19.20
2018-09-04T18:27:18.398Z,19.20
2018-09-04T18:29:47.610Z,19.20
2018-09-04T18:32:16.849Z,19.20
2018-09-04T18:34:47.081Z,19.20
2018-09-04T18:37:16.348Z,19.20
2018-09-04T18:39:45.589Z,19.20
2018-09-04T18:42:15.380Z,19.10
2018-09-04T18:44:44.571Z,18.90
2018-09-04T18:47:14.255Z,18.70
2018-09-04T18:49:43.478Z,18.50
2018-09-04T18:52:12.613Z,18.30
2018-09-04T18:54:41.894Z,18.30
2018-09-04T18:57:11.182Z,18.20
2018-09-04T18:59:40.398Z,18.10
2018-09-04T19:02:09.588Z,18.10
2018-09-04T19:04:38.834Z,18.00
2018-09-04T19:07:08.111Z,18.00
2018-09-04T19:09:37.314Z,18.00
2018-09-04T19:12:06.647Z,18.00
2018-09-04T19:15:14.602Z,18.00
2018-09-04T19:17:43.689Z,18.00
2018-09-04T19:20:12.808Z,18.00
2018-09-04T19:22:42.058Z,18.00
2018-09-04T19:25:11.380Z,17.90
2018-09-04T19:27:41.594Z,17.90
2018-09-04T19:30:10.773Z,18.00
2018-09-04T19:32:40.100Z,17.90
2018-09-04T19:35:09.330Z,18.00
2018-09-04T19:37:38.653Z,18.00
2018-09-04T19:40:08.442Z,18.00
2018-09-04T19:42:37.704Z,18.00
2018-09-04T19:45:07.367Z,18.00
2018-09-04T19:47:36.615Z,18.00
2018-09-04T19:50:07.408Z,18.00
2018-09-04T19:52:36.524Z,18.00
2018-09-04T19:55:06.053Z,18.00
2018-09-04T19:57:35.193Z,18.00
2018-09-04T20:00:04.567Z,18.00
2018-09-04T20:02:33.786Z,18.00
2018-09-04T20:05:02.987Z,18.00
2018-09-04T20:07:32.312Z,18.00
2018-09-04T20:10:01.374Z,18.00
2018-09-04T20:12:30.446Z,18.00
2018-09-04T20:14:59.634Z,18.00
2018-09-04T20:17:29.134Z,18.00
2018-09-04T20:19:58.490Z,18.00
2018-09-04T20:22:27.743Z,18.00
2018-09-04T20:24:56.861Z,18.10
2018-09-04T20:27:26.073Z,18.10
2018-09-04T20:29:55.267Z,18.10
2018-09-04T20:32:24.875Z,18.20
2018-09-04T20:34:54.101Z,18.20
2018-09-04T20:37:23.246Z,18.20
2018-09-04T20:39:52.263Z,18.20
2018-09-04T20:42:21.541Z,18.20
2018-09-04T20:44:50.634Z,18.20
2018-09-04T20:47:19.766Z,18.20
2018-09-04T20:49:49.148Z,18.20
2018-09-04T20:52:18.434Z,18.20
2018-09-04T20:54:47.614Z,18.20
2018-09-04T20:57:23.670Z,18.20
2018-09-04T21:00:05.398Z,18.30
2018-09-04T21:02:45.435Z,18.20
2018-09-04T21:05:25.725Z,18.20
2018-09-04T21:08:12.934Z,18.30
2018-09-04T21:10:42.473Z,18.30
2018-09-04T21:13:12.501Z,18.30
2018-09-04T21:15:42.077Z,18.30
2018-09-04T21:18:11.457Z,18.30
2018-09-04T21:20:40.811Z,18.40
2018-09-04T21:23:09.925Z,18.40
2018-09-04T21:25:39.145Z,18.40
2018-09-04T21:28:08.342Z,18.40
2018-09-04T21:30:37.503Z,18.40
2018-09-04T21:33:06.745Z,18.30
2018-09-04T21:35:36.082Z,18.30
2018-09-04T21:38:05.468Z,18.40
2018-09-04T21:40:34.682Z,18.40
2018-09-04T21:43:03.830Z,18.30
2018-09-04T21:45:33.106Z,18.40
2018-09-04T21:48:02.231Z,18.40
2018-09-04T21:50:32.281Z,18.40
2018-09-04T21:53:01.485Z,18.40
2018-09-04T21:55:30.578Z,18.40
2018-09-04T21:57:59.854Z,18.40
2018-09-04T22:00:29.209Z,18.40
2018-09-04T22:02:58.822Z,18.40
2018-09-04T22:05:27.989Z,18.40
2018-09-04T22:07:58.038Z,18.40
2018-09-04T22:10:28.049Z,18.40
2018-09-04T22:12:57.273Z,18.40
2018-09-04T22:15:26.813Z,18.40
2018-09-04T22:17:56.074Z,18.40
2018-09-04T22:20:25.362Z,18.40
2018-09-04T22:22:54.490Z,18.40
2018-09-04T22:25:23.709Z,18.40
2018-09-04T22:27:52.886Z,18.40
2018-09-04T22:30:25.072Z,18.40
2018-09-04T22:32:54.861Z,18.40
2018-09-04T22:35:24.033Z,18.50
2018-09-04T22:37:53.090Z,18.50
2018-09-04T22:40:22.174Z,18.50
2018-09-04T22:42:51.469Z,18.50
2018-09-04T22:45:20.730Z,18.60
2018-09-04T22:47:49.807Z,18.60
2018-09-04T22:50:23.983Z,18.60
2018-09-04T22:52:53.322Z,18.70
2018-09-04T22:55:22.521Z,18.70
2018-09-04T22:57:51.705Z,18.70
2018-09-04T23:00:20.842Z,18.70
2018-09-04T23:02:50.022Z,18.70
2018-09-04T23:05:19.054Z,18.70
2018-09-04T23:07:48.241Z,18.70
2018-09-04T23:10:17.433Z,18.70
2018-09-04T23:12:46.718Z,18.70
2018-09-04T23:15:15.977Z,18.70
2018-09-04T23:17:45.105Z,18.70
2018-09-04T23:20:14.177Z,18.60
2018-09-04T23:22:43.916Z,18.60
2018-09-04T23:25:13.010Z,18.60
2018-09-04T23:27:42.073Z,18.70
2018-09-04T23:30:11.216Z,18.80
2018-09-04T23:32:41.074Z,18.80
2018-09-04T23:35:10.055Z,18.80
2018-09-04T23:37:39.035Z,18.80
2018-09-04T23:40:08.363Z,18.80
2018-09-04T23:42:37.605Z,18.80
2018-09-04T23:45:06.971Z,18.80
2018-09-04T23:47:36.250Z,18.80
2018-09-04T23:50:07.061Z,18.70
2018-09-04T23:52:36.243Z,18.70
2018-09-04T23:55:05.586Z,18.70
2018-09-04T23:57:34.775Z,18.70
